sensor_id;sensor_type;location;lat;lon;timestamp;temperature;humidity
29547;DHT22;40782;47.264;11.330;2023-02-28T00:00:08;-0.10;99.90
29547;DHT22;40782;47.264;11.330;2023-02-28T00:02:37;0.00;99.90
29547;DHT22;40782;47.264;11.330;2023-02-28T00:05:06;0.00;99.90
29547;DHT22;40782;47.264;11.330;2023-02-28T00:07:33;-0.10;99.90
29547;DHT22;40782;47.264;11.330;2023-02-28T00:10:01;-0.10;99.90
29547;DHT22;40782;47.264;11.330;2023-02-28T00:12:29;-0.10;99.90
29547;DHT22;40782;47.264;11.330;2023-02-28T00:14:56;-0.10;99.90
29547;DHT22;40782;47.264;11.330;2023-02-28T00:17:23;-0.10;99.90
29547;DHT22;40782;47.264;11.330;2023-02-28T00:19:50;-0.10;99.90
29547;DHT22;40782;47.264;11.330;2023-02-28T00:22:20;-0.10;99.90
29547;DHT22;40782;47.264;11.330;2023-02-28T00:24:47;0.00;99.90
29547;DHT22;40782;47.264;11.330;2023-02-28T00:27:14;0.00;99.90
29547;DHT22;40782;47.264;11.330;2023-02-28T00:29:41;0.00;99.90
29547;DHT22;40782;47.264;11.330;2023-02-28T00:32:08;-0.10;99.90
29547;DHT22;40782;47.264;11.330;2023-02-28T00:34:35;-0.10;99.90
29547;DHT22;40782;47.264;11.330;2023-02-28T00:37:03;-0.10;99.90
29547;DHT22;40782;47.264;11.330;2023-02-28T00:39:34;-0.10;99.90
29547;DHT22;40782;47.264;11.330;2023-02-28T00:42:02;-0.10;99.90
29547;DHT22;40782;47.264;11.330;2023-02-28T00:44:30;-0.10;99.90
29547;DHT22;40782;47.264;11.330;2023-02-28T00:46:57;-0.10;99.90
29547;DHT22;40782;47.264;11.330;2023-02-28T00:49:24;0.00;99.90
29547;DHT22;40782;47.264;11.330;2023-02-28T00:51:52;-0.10;99.90
29547;DHT22;40782;47.264;11.330;2023-02-28T00:54:19;-0.10;99.90
29547;DHT22;40782;47.264;11.330;2023-02-28T00:56:47;-0.10;99.90
29547;DHT22;40782;47.264;11.330;2023-02-28T00:59:15;-0.10;99.90
29547;DHT22;40782;47.264;11.330;2023-02-28T01:01:43;-0.10;99.90
29547;DHT22;40782;47.264;11.330;2023-02-28T01:04:10;-0.20;99.90
29547;DHT22;40782;47.264;11.330;2023-02-28T01:06:37;-0.20;99.90
29547;DHT22;40782;47.264;11.330;2023-02-28T01:09:04;-0.30;99.90
29547;DHT22;40782;47.264;11.330;2023-02-28T01:11:32;-0.30;99.90
29547;DHT22;40782;47.264;11.330;2023-02-28T01:14:01;-0.30;99.90
29547;DHT22;40782;47.264;11.330;2023-02-28T01:16:29;-0.30;99.90
29547;DHT22;40782;47.264;11.330;2023-02-28T01:18:56;-0.30;99.90
29547;DHT22;40782;47.264;11.330;2023-02-28T01:21:23;-0.30;99.90
29547;DHT22;40782;47.264;11.330;2023-02-28T01:23:50;-0.30;99.90
29547;DHT22;40782;47.264;11.330;2023-02-28T01:26:18;-0.30;99.90
29547;DHT22;40782;47.264;11.330;2023-02-28T01:28:47;-0.40;99.90
29547;DHT22;40782;47.264;11.330;2023-02-28T01:31:16;-0.40;99.90
29547;DHT22;40782;47.264;11.330;2023-02-28T01:33:45;-0.50;99.90
29547;DHT22;40782;47.264;11.330;2023-02-28T01:36:13;-0.40;99.90
29547;DHT22;40782;47.264;11.330;2023-02-28T01:38:40;-0.50;99.90
29547;DHT22;40782;47.264;11.330;2023-02-28T01:41:08;-0.50;99.90
29547;DHT22;40782;47.264;11.330;2023-02-28T01:46:18;-0.50;99.90
29547;DHT22;40782;47.264;11.330;2023-02-28T01:48:46;-0.60;99.90
29547;DHT22;40782;47.264;11.330;2023-02-28T01:51:15;-0.70;99.90
29547;DHT22;40782;47.264;11.330;2023-02-28T01:53:45;-0.60;99.90
29547;DHT22;40782;47.264;11.330;2023-02-28T01:56:14;-0.60;99.90
29547;DHT22;40782;47.264;11.330;2023-02-28T01:58:46;-0.70;99.90
29547;DHT22;40782;47.264;11.330;2023-02-28T02:01:13;-0.70;99.90
29547;DHT22;40782;47.264;11.330;2023-02-28T02:03:48;-0.70;99.90
29547;DHT22;40782;47.264;11.330;2023-02-28T02:06:20;-0.60;99.90
29547;DHT22;40782;47.264;11.330;2023-02-28T02:08:47;-0.60;99.90
29547;DHT22;40782;47.264;11.330;2023-02-28T02:11:15;-0.60;99.90
29547;DHT22;40782;47.264;11.330;2023-02-28T02:13:54;-0.60;99.90
29547;DHT22;40782;47.264;11.330;2023-02-28T02:16:29;-0.70;99.90
29547;DHT22;40782;47.264;11.330;2023-02-28T02:19:02;-0.80;99.90
29547;DHT22;40782;47.264;11.330;2023-02-28T02:27:11;-0.80;99.90
29547;DHT22;40782;47.264;11.330;2023-02-28T02:29:47;-0.90;99.90
29547;DHT22;40782;47.264;11.330;2023-02-28T02:32:25;-1.00;99.90
29547;DHT22;40782;47.264;11.330;2023-02-28T02:35:01;-1.00;99.90
29547;DHT22;40782;47.264;11.330;2023-02-28T02:37:35;-1.20;99.90
29547;DHT22;40782;47.264;11.330;2023-02-28T02:40:07;-1.30;99.90
29547;DHT22;40782;47.264;11.330;2023-02-28T02:42:37;-1.20;99.90
29547;DHT22;40782;47.264;11.330;2023-02-28T02:45:07;-1.20;99.90
29547;DHT22;40782;47.264;11.330;2023-02-28T02:47:36;-1.20;99.90
29547;DHT22;40782;47.264;11.330;2023-02-28T02:50:07;-1.20;99.90
29547;DHT22;40782;47.264;11.330;2023-02-28T02:52:39;-1.20;99.90
29547;DHT22;40782;47.264;11.330;2023-02-28T02:55:09;-1.20;99.90
29547;DHT22;40782;47.264;11.330;2023-02-28T02:57:38;-1.20;99.90
29547;DHT22;40782;47.264;11.330;2023-02-28T03:00:07;-1.20;99.90
29547;DHT22;40782;47.264;11.330;2023-02-28T03:02:35;-1.30;99.90
29547;DHT22;40782;47.264;11.330;2023-02-28T03:05:06;-1.40;99.90
29547;DHT22;40782;47.264;11.330;2023-02-28T03:07:35;-1.40;99.90
29547;DHT22;40782;47.264;11.330;2023-02-28T03:10:02;-1.50;99.90
29547;DHT22;40782;47.264;11.330;2023-02-28T03:12:32;-1.60;99.90
29547;DHT22;40782;47.264;11.330;2023-02-28T03:15:04;-1.60;99.90
29547;DHT22;40782;47.264;11.330;2023-02-28T03:17:42;-1.70;99.90
29547;DHT22;40782;47.264;11.330;2023-02-28T03:20:15;-1.90;99.90
29547;DHT22;40782;47.264;11.330;2023-02-28T03:22:51;-2.00;99.90
29547;DHT22;40782;47.264;11.330;2023-02-28T03:25:25;-2.10;99.90
29547;DHT22;40782;47.264;11.330;2023-02-28T03:27:55;-2.00;99.90
29547;DHT22;40782;47.264;11.330;2023-02-28T03:30:26;-1.90;99.90
29547;DHT22;40782;47.264;11.330;2023-02-28T03:32:55;-1.80;99.90
29547;DHT22;40782;47.264;11.330;2023-02-28T03:35:26;-2.10;99.90
29547;DHT22;40782;47.264;11.330;2023-02-28T03:37:56;-2.20;99.90
29547;DHT22;40782;47.264;11.330;2023-02-28T03:40:27;-2.20;99.90
29547;DHT22;40782;47.264;11.330;2023-02-28T03:42:58;-2.30;99.90
29547;DHT22;40782;47.264;11.330;2023-02-28T03:45:27;-2.40;99.90
29547;DHT22;40782;47.264;11.330;2023-02-28T03:47:56;-2.40;99.90
29547;DHT22;40782;47.264;11.330;2023-02-28T03:50:26;-2.50;99.90
29547;DHT22;40782;47.264;11.330;2023-02-28T03:52:55;-2.50;99.90
29547;DHT22;40782;47.264;11.330;2023-02-28T03:55:27;-2.50;99.90
29547;DHT22;40782;47.264;11.330;2023-02-28T03:57:56;-2.50;1.00
29547;DHT22;40782;47.264;11.330;2023-02-28T04:00:26;-2.50;99.90
29547;DHT22;40782;47.264;11.330;2023-02-28T04:02:54;-2.60;99.90
29547;DHT22;40782;47.264;11.330;2023-02-28T04:05:21;-2.60;99.90
29547;DHT22;40782;47.264;11.330;2023-02-28T04:07:50;-2.70;99.90
29547;DHT22;40782;47.264;11.330;2023-02-28T04:10:18;-2.70;99.90
29547;DHT22;40782;47.264;11.330;2023-02-28T04:12:45;-2.70;99.90
29547;DHT22;40782;47.264;11.330;2023-02-28T04:15:12;-2.80;99.90
29547;DHT22;40782;47.264;11.330;2023-02-28T04:17:39;-2.80;99.90
29547;DHT22;40782;47.264;11.330;2023-02-28T04:20:07;-2.80;99.90
29547;DHT22;40782;47.264;11.330;2023-02-28T04:22:36;-2.70;99.90
29547;DHT22;40782;47.264;11.330;2023-02-28T04:25:05;-2.70;1.00
29547;DHT22;40782;47.264;11.330;2023-02-28T04:27:32;-2.60;1.00
29547;DHT22;40782;47.264;11.330;2023-02-28T04:29:59;-2.50;1.00
29547;DHT22;40782;47.264;11.330;2023-02-28T04:32:26;-2.50;99.90
29547;DHT22;40782;47.264;11.330;2023-02-28T04:34:53;-2.50;1.00
29547;DHT22;40782;47.264;11.330;2023-02-28T04:37:20;-2.40;99.90
29547;DHT22;40782;47.264;11.330;2023-02-28T04:39:53;-2.30;99.90
29547;DHT22;40782;47.264;11.330;2023-02-28T04:42:21;-2.20;99.90
29547;DHT22;40782;47.264;11.330;2023-02-28T04:44:48;-2.20;99.90
29547;DHT22;40782;47.264;11.330;2023-02-28T04:47:15;-2.30;99.90
29547;DHT22;40782;47.264;11.330;2023-02-28T04:49:42;-2.20;99.90
29547;DHT22;40782;47.264;11.330;2023-02-28T04:52:10;-2.20;99.90
29547;DHT22;40782;47.264;11.330;2023-02-28T04:54:38;-2.20;99.90
29547;DHT22;40782;47.264;11.330;2023-02-28T04:57:05;-2.40;99.90
29547;DHT22;40782;47.264;11.330;2023-02-28T04:59:34;-2.40;99.90
29547;DHT22;40782;47.264;11.330;2023-02-28T05:02:01;-2.50;99.90
29547;DHT22;40782;47.264;11.330;2023-02-28T05:04:32;-2.40;99.90
29547;DHT22;40782;47.264;11.330;2023-02-28T05:06:59;-2.40;99.90
29547;DHT22;40782;47.264;11.330;2023-02-28T05:09:26;-2.30;99.90
29547;DHT22;40782;47.264;11.330;2023-02-28T05:11:53;-2.30;99.90
29547;DHT22;40782;47.264;11.330;2023-02-28T05:14:21;-2.30;99.90
29547;DHT22;40782;47.264;11.330;2023-02-28T05:16:49;-2.30;99.90
29547;DHT22;40782;47.264;11.330;2023-02-28T05:19:16;-2.30;99.90
29547;DHT22;40782;47.264;11.330;2023-02-28T05:21:48;-2.30;99.90
29547;DHT22;40782;47.264;11.330;2023-02-28T05:24:16;-2.30;99.90
29547;DHT22;40782;47.264;11.330;2023-02-28T05:26:48;-2.30;99.90
29547;DHT22;40782;47.264;11.330;2023-02-28T05:29:15;-2.40;99.90
29547;DHT22;40782;47.264;11.330;2023-02-28T05:31:42;-2.40;99.90
29547;DHT22;40782;47.264;11.330;2023-02-28T05:34:11;-2.30;99.90
29547;DHT22;40782;47.264;11.330;2023-02-28T05:36:38;-2.30;99.90
29547;DHT22;40782;47.264;11.330;2023-02-28T05:39:05;-2.30;99.90
29547;DHT22;40782;47.264;11.330;2023-02-28T05:41:38;-2.40;99.90
29547;DHT22;40782;47.264;11.330;2023-02-28T05:44:05;-2.50;99.90
29547;DHT22;40782;47.264;11.330;2023-02-28T05:46:32;-2.50;99.90
29547;DHT22;40782;47.264;11.330;2023-02-28T05:48:59;-2.50;99.90
29547;DHT22;40782;47.264;11.330;2023-02-28T05:51:28;-2.50;99.90
29547;DHT22;40782;47.264;11.330;2023-02-28T05:53:58;-2.50;99.90
29547;DHT22;40782;47.264;11.330;2023-02-28T05:56:25;-2.50;99.90
29547;DHT22;40782;47.264;11.330;2023-02-28T05:58:52;-2.60;99.90
29547;DHT22;40782;47.264;11.330;2023-02-28T06:01:20;-2.80;99.90
29547;DHT22;40782;47.264;11.330;2023-02-28T06:03:48;-2.90;99.90
29547;DHT22;40782;47.264;11.330;2023-02-28T06:06:15;-2.90;99.90
29547;DHT22;40782;47.264;11.330;2023-02-28T06:08:43;-2.90;99.90
29547;DHT22;40782;47.264;11.330;2023-02-28T06:11:11;-2.70;99.90
29547;DHT22;40782;47.264;11.330;2023-02-28T06:13:38;-2.60;99.90
29547;DHT22;40782;47.264;11.330;2023-02-28T06:16:05;-2.50;99.90
29547;DHT22;40782;47.264;11.330;2023-02-28T06:18:32;-2.50;99.90
29547;DHT22;40782;47.264;11.330;2023-02-28T06:20:59;-2.50;99.90
29547;DHT22;40782;47.264;11.330;2023-02-28T06:23:26;-2.70;99.90
29547;DHT22;40782;47.264;11.330;2023-02-28T06:25:55;-2.80;99.90
29547;DHT22;40782;47.264;11.330;2023-02-28T06:28:24;-2.80;99.90
29547;DHT22;40782;47.264;11.330;2023-02-28T06:30:51;-2.70;99.90
29547;DHT22;40782;47.264;11.330;2023-02-28T06:33:18;-2.80;99.90
29547;DHT22;40782;47.264;11.330;2023-02-28T06:35:46;-2.70;99.90
29547;DHT22;40782;47.264;11.330;2023-02-28T06:38:13;-2.60;99.90
29547;DHT22;40782;47.264;11.330;2023-02-28T06:40:40;-2.80;99.90
29547;DHT22;40782;47.264;11.330;2023-02-28T06:43:08;-2.90;99.90
29547;DHT22;40782;47.264;11.330;2023-02-28T06:45:41;-2.90;99.90
29547;DHT22;40782;47.264;11.330;2023-02-28T06:48:08;-2.90;1.00
29547;DHT22;40782;47.264;11.330;2023-02-28T06:50:36;-2.90;1.00
29547;DHT22;40782;47.264;11.330;2023-02-28T06:53:03;-2.90;1.00
29547;DHT22;40782;47.264;11.330;2023-02-28T06:55:30;-2.70;1.00
29547;DHT22;40782;47.264;11.330;2023-02-28T06:57:58;-2.60;1.00
29547;DHT22;40782;47.264;11.330;2023-02-28T07:00:26;-2.50;1.00
29547;DHT22;40782;47.264;11.330;2023-02-28T07:02:53;-2.30;1.00
29547;DHT22;40782;47.264;11.330;2023-02-28T07:05:21;-2.10;99.90
29547;DHT22;40782;47.264;11.330;2023-02-28T07:07:48;-2.10;99.90
29547;DHT22;40782;47.264;11.330;2023-02-28T07:10:16;-2.10;99.90
29547;DHT22;40782;47.264;11.330;2023-02-28T07:12:43;-2.10;99.90
29547;DHT22;40782;47.264;11.330;2023-02-28T07:15:10;-2.00;99.90
29547;DHT22;40782;47.264;11.330;2023-02-28T07:17:39;-2.00;99.90
29547;DHT22;40782;47.264;11.330;2023-02-28T07:20:06;-1.80;99.90
29547;DHT22;40782;47.264;11.330;2023-02-28T07:22:33;-1.70;99.90
29547;DHT22;40782;47.264;11.330;2023-02-28T07:25:01;-1.70;99.90
29547;DHT22;40782;47.264;11.330;2023-02-28T07:27:28;-1.50;99.90
29547;DHT22;40782;47.264;11.330;2023-02-28T07:29:55;-1.30;99.90
29547;DHT22;40782;47.264;11.330;2023-02-28T07:32:22;-1.20;99.90
29547;DHT22;40782;47.264;11.330;2023-02-28T07:34:51;-1.10;99.90
29547;DHT22;40782;47.264;11.330;2023-02-28T07:37:18;-1.00;99.90
29547;DHT22;40782;47.264;11.330;2023-02-28T07:39:45;-1.10;99.90
29547;DHT22;40782;47.264;11.330;2023-02-28T07:42:12;-1.10;99.90
29547;DHT22;40782;47.264;11.330;2023-02-28T07:44:39;-1.10;99.90
29547;DHT22;40782;47.264;11.330;2023-02-28T07:47:07;-1.10;99.90
29547;DHT22;40782;47.264;11.330;2023-02-28T07:49:34;-0.80;99.90
29547;DHT22;40782;47.264;11.330;2023-02-28T07:52:03;-0.60;99.90
29547;DHT22;40782;47.264;11.330;2023-02-28T07:54:30;-0.50;99.90
29547;DHT22;40782;47.264;11.330;2023-02-28T07:56:57;-0.50;99.90
29547;DHT22;40782;47.264;11.330;2023-02-28T07:59:24;-0.40;99.90
29547;DHT22;40782;47.264;11.330;2023-02-28T08:01:52;-0.10;99.90
29547;DHT22;40782;47.264;11.330;2023-02-28T08:04:19;0.10;99.90
29547;DHT22;40782;47.264;11.330;2023-02-28T08:06:46;0.40;99.90
29547;DHT22;40782;47.264;11.330;2023-02-28T08:09:15;0.40;99.90
29547;DHT22;40782;47.264;11.330;2023-02-28T08:11:42;0.20;99.90
29547;DHT22;40782;47.264;11.330;2023-02-28T08:14:09;0.20;99.90
29547;DHT22;40782;47.264;11.330;2023-02-28T08:16:36;0.40;99.90
29547;DHT22;40782;47.264;11.330;2023-02-28T08:19:04;0.40;99.90
29547;DHT22;40782;47.264;11.330;2023-02-28T08:21:32;0.20;99.90
29547;DHT22;40782;47.264;11.330;2023-02-28T08:23:59;0.10;99.90
29547;DHT22;40782;47.264;11.330;2023-02-28T08:26:27;0.20;99.90
29547;DHT22;40782;47.264;11.330;2023-02-28T08:28:54;0.60;99.90
29547;DHT22;40782;47.264;11.330;2023-02-28T08:31:21;1.00;99.90
29547;DHT22;40782;47.264;11.330;2023-02-28T08:33:49;1.30;99.90
29547;DHT22;40782;47.264;11.330;2023-02-28T08:36:18;1.60;99.90
29547;DHT22;40782;47.264;11.330;2023-02-28T08:38:46;2.00;99.90
29547;DHT22;40782;47.264;11.330;2023-02-28T08:41:13;2.50;99.90
29547;DHT22;40782;47.264;11.330;2023-02-28T08:43:41;2.50;99.90
29547;DHT22;40782;47.264;11.330;2023-02-28T08:46:10;2.50;99.90
29547;DHT22;40782;47.264;11.330;2023-02-28T08:48:38;2.40;99.90
29547;DHT22;40782;47.264;11.330;2023-02-28T08:51:06;2.30;99.90
29547;DHT22;40782;47.264;11.330;2023-02-28T08:53:34;1.90;99.90
29547;DHT22;40782;47.264;11.330;2023-02-28T08:56:02;1.30;99.90
29547;DHT22;40782;47.264;11.330;2023-02-28T08:58:30;1.20;99.90
29547;DHT22;40782;47.264;11.330;2023-02-28T09:00:58;1.10;99.90
29547;DHT22;40782;47.264;11.330;2023-02-28T09:03:25;1.20;99.90
29547;DHT22;40782;47.264;11.330;2023-02-28T09:05:54;1.10;99.90
29547;DHT22;40782;47.264;11.330;2023-02-28T09:08:21;0.90;99.90
29547;DHT22;40782;47.264;11.330;2023-02-28T09:10:48;0.80;99.90
29547;DHT22;40782;47.264;11.330;2023-02-28T09:13:15;0.80;99.90
29547;DHT22;40782;47.264;11.330;2023-02-28T09:15:42;0.90;99.90
29547;DHT22;40782;47.264;11.330;2023-02-28T09:18:10;0.90;99.90
29547;DHT22;40782;47.264;11.330;2023-02-28T09:20:38;1.10;99.90
29547;DHT22;40782;47.264;11.330;2023-02-28T09:23:05;1.10;99.90
29547;DHT22;40782;47.264;11.330;2023-02-28T09:25:32;1.20;99.90
29547;DHT22;40782;47.264;11.330;2023-02-28T09:28:00;1.50;99.90
29547;DHT22;40782;47.264;11.330;2023-02-28T09:30:27;1.70;99.90
29547;DHT22;40782;47.264;11.330;2023-02-28T09:32:54;1.60;99.90
29547;DHT22;40782;47.264;11.330;2023-02-28T09:35:22;1.70;99.90
29547;DHT22;40782;47.264;11.330;2023-02-28T09:37:50;1.80;99.90
29547;DHT22;40782;47.264;11.330;2023-02-28T09:40:18;1.80;99.90
29547;DHT22;40782;47.264;11.330;2023-02-28T09:42:46;1.90;99.90
29547;DHT22;40782;47.264;11.330;2023-02-28T09:45:17;2.10;99.90
29547;DHT22;40782;47.264;11.330;2023-02-28T09:47:46;2.50;99.90
29547;DHT22;40782;47.264;11.330;2023-02-28T09:50:17;2.80;99.90
29547;DHT22;40782;47.264;11.330;2023-02-28T09:52:46;3.00;99.90
29547;DHT22;40782;47.264;11.330;2023-02-28T09:55:18;2.80;99.90
29547;DHT22;40782;47.264;11.330;2023-02-28T09:57:46;2.90;99.90
29547;DHT22;40782;47.264;11.330;2023-02-28T10:00:15;3.20;99.90
29547;DHT22;40782;47.264;11.330;2023-02-28T10:02:50;3.60;99.90
29547;DHT22;40782;47.264;11.330;2023-02-28T10:05:19;3.60;99.90
29547;DHT22;40782;47.264;11.330;2023-02-28T10:07:53;3.20;99.90
29547;DHT22;40782;47.264;11.330;2023-02-28T10:10:26;3.10;99.90
29547;DHT22;40782;47.264;11.330;2023-02-28T10:12:55;3.10;99.90
29547;DHT22;40782;47.264;11.330;2023-02-28T10:15:23;3.30;99.90
29547;DHT22;40782;47.264;11.330;2023-02-28T10:17:53;3.60;99.90
29547;DHT22;40782;47.264;11.330;2023-02-28T10:20:20;4.20;99.90
29547;DHT22;40782;47.264;11.330;2023-02-28T10:22:52;4.80;99.90
29547;DHT22;40782;47.264;11.330;2023-02-28T10:25:20;4.40;99.90
29547;DHT22;40782;47.264;11.330;2023-02-28T10:27:48;4.50;99.90
29547;DHT22;40782;47.264;11.330;2023-02-28T10:30:16;4.90;99.90
29547;DHT22;40782;47.264;11.330;2023-02-28T10:32:47;5.00;99.90
29547;DHT22;40782;47.264;11.330;2023-02-28T10:35:16;4.90;99.90
29547;DHT22;40782;47.264;11.330;2023-02-28T10:37:44;5.10;99.90
29547;DHT22;40782;47.264;11.330;2023-02-28T10:40:25;4.90;99.90
29547;DHT22;40782;47.264;11.330;2023-02-28T10:42:56;5.00;99.90
29547;DHT22;40782;47.264;11.330;2023-02-28T10:45:24;5.30;99.90
29547;DHT22;40782;47.264;11.330;2023-02-28T10:47:52;5.50;99.90
29547;DHT22;40782;47.264;11.330;2023-02-28T10:50:28;6.10;99.90
29547;DHT22;40782;47.264;11.330;2023-02-28T10:53:02;6.60;99.90
29547;DHT22;40782;47.264;11.330;2023-02-28T10:55:33;6.10;99.90
29547;DHT22;40782;47.264;11.330;2023-02-28T10:58:00;6.50;99.90
29547;DHT22;40782;47.264;11.330;2023-02-28T11:00:31;6.90;99.90
29547;DHT22;40782;47.264;11.330;2023-02-28T11:02:59;6.40;99.90
29547;DHT22;40782;47.264;11.330;2023-02-28T11:05:27;6.30;99.90
29547;DHT22;40782;47.264;11.330;2023-02-28T11:07:55;6.70;99.90
29547;DHT22;40782;47.264;11.330;2023-02-28T11:10:24;6.80;99.90
29547;DHT22;40782;47.264;11.330;2023-02-28T11:12:55;7.10;99.90
29547;DHT22;40782;47.264;11.330;2023-02-28T11:15:24;7.60;99.90
29547;DHT22;40782;47.264;11.330;2023-02-28T11:17:55;8.40;99.90
29547;DHT22;40782;47.264;11.330;2023-02-28T11:20:23;9.00;99.90
29547;DHT22;40782;47.264;11.330;2023-02-28T11:22:51;9.10;99.90
29547;DHT22;40782;47.264;11.330;2023-02-28T11:25:21;8.90;99.90
29547;DHT22;40782;47.264;11.330;2023-02-28T11:27:50;9.20;99.90
29547;DHT22;40782;47.264;11.330;2023-02-28T11:30:26;9.70;99.90
29547;DHT22;40782;47.264;11.330;2023-02-28T11:32:53;9.70;99.90
29547;DHT22;40782;47.264;11.330;2023-02-28T11:35:22;10.10;99.90
29547;DHT22;40782;47.264;11.330;2023-02-28T11:37:50;10.50;99.90
29547;DHT22;40782;47.264;11.330;2023-02-28T11:40:18;10.80;99.90
29547;DHT22;40782;47.264;11.330;2023-02-28T11:42:48;10.80;99.90
29547;DHT22;40782;47.264;11.330;2023-02-28T11:45:33;11.20;99.90
29547;DHT22;40782;47.264;11.330;2023-02-28T11:48:04;11.40;99.90
29547;DHT22;40782;47.264;11.330;2023-02-28T11:50:46;11.70;99.90
29547;DHT22;40782;47.264;11.330;2023-02-28T11:53:17;11.60;99.90
29547;DHT22;40782;47.264;11.330;2023-02-28T11:55:47;11.50;99.90
29547;DHT22;40782;47.264;11.330;2023-02-28T11:58:30;12.00;99.90
29547;DHT22;40782;47.264;11.330;2023-02-28T12:01:06;12.40;99.90
29547;DHT22;40782;47.264;11.330;2023-02-28T12:03:39;12.70;99.90
29547;DHT22;40782;47.264;11.330;2023-02-28T12:06:14;13.10;99.90
29547;DHT22;40782;47.264;11.330;2023-02-28T12:08:48;13.30;99.90
29547;DHT22;40782;47.264;11.330;2023-02-28T12:11:19;12.70;99.90
29547;DHT22;40782;47.264;11.330;2023-02-28T12:13:51;12.90;99.90
29547;DHT22;40782;47.264;11.330;2023-02-28T12:16:28;12.60;99.90
29547;DHT22;40782;47.264;11.330;2023-02-28T12:19:00;12.40;99.90
29547;DHT22;40782;47.264;11.330;2023-02-28T12:21:31;12.50;99.90
29547;DHT22;40782;47.264;11.330;2023-02-28T12:24:06;12.70;99.90
29547;DHT22;40782;47.264;11.330;2023-02-28T12:26:38;13.00;99.90
29547;DHT22;40782;47.264;11.330;2023-02-28T12:29:09;12.80;99.90
29547;DHT22;40782;47.264;11.330;2023-02-28T12:31:40;12.90;99.90
29547;DHT22;40782;47.264;11.330;2023-02-28T12:34:10;13.00;99.90
29547;DHT22;40782;47.264;11.330;2023-02-28T12:36:38;13.60;99.90
29547;DHT22;40782;47.264;11.330;2023-02-28T12:39:07;14.00;99.90
29547;DHT22;40782;47.264;11.330;2023-02-28T12:41:37;14.30;99.90
29547;DHT22;40782;47.264;11.330;2023-02-28T12:44:07;14.60;99.90
29547;DHT22;40782;47.264;11.330;2023-02-28T12:46:36;14.80;99.90
29547;DHT22;40782;47.264;11.330;2023-02-28T12:49:06;15.00;99.90
29547;DHT22;40782;47.264;11.330;2023-02-28T12:51:35;14.80;99.90
29547;DHT22;40782;47.264;11.330;2023-02-28T12:54:09;14.50;99.90
29547;DHT22;40782;47.264;11.330;2023-02-28T12:56:40;14.70;99.90
29547;DHT22;40782;47.264;11.330;2023-02-28T12:59:10;15.10;99.90
29547;DHT22;40782;47.264;11.330;2023-02-28T13:01:46;15.40;99.90
29547;DHT22;40782;47.264;11.330;2023-02-28T13:04:29;15.70;99.90
29547;DHT22;40782;47.264;11.330;2023-02-28T13:07:04;15.50;99.90
29547;DHT22;40782;47.264;11.330;2023-02-28T13:09:34;15.30;99.90
29547;DHT22;40782;47.264;11.330;2023-02-28T13:12:01;15.30;99.90
29547;DHT22;40782;47.264;11.330;2023-02-28T13:14:29;15.40;99.90
29547;DHT22;40782;47.264;11.330;2023-02-28T13:16:58;15.80;99.90
29547;DHT22;40782;47.264;11.330;2023-02-28T13:19:26;15.70;99.90
29547;DHT22;40782;47.264;11.330;2023-02-28T13:21:56;15.50;99.90
29547;DHT22;40782;47.264;11.330;2023-02-28T13:24:44;15.80;99.90
29547;DHT22;40782;47.264;11.330;2023-02-28T13:29:59;16.70;99.90
29547;DHT22;40782;47.264;11.330;2023-02-28T13:32:28;16.80;99.90
29547;DHT22;40782;47.264;11.330;2023-02-28T13:35:15;16.60;99.90
29547;DHT22;40782;47.264;11.330;2023-02-28T13:38:22;16.90;98.70
29547;DHT22;40782;47.264;11.330;2023-02-28T13:40:50;16.90;98.50
29547;DHT22;40782;47.264;11.330;2023-02-28T13:43:17;16.90;98.10
29547;DHT22;40782;47.264;11.330;2023-02-28T13:48:31;17.20;97.20
29547;DHT22;40782;47.264;11.330;2023-02-28T13:50:58;17.30;96.30
29547;DHT22;40782;47.264;11.330;2023-02-28T13:53:36;17.20;95.70
29547;DHT22;40782;47.264;11.330;2023-02-28T13:56:09;17.30;96.90
29547;DHT22;40782;47.264;11.330;2023-02-28T13:58:46;16.90;93.40
29547;DHT22;40782;47.264;11.330;2023-02-28T14:01:16;16.70;94.40
29547;DHT22;40782;47.264;11.330;2023-02-28T14:04:02;16.80;95.20
29547;DHT22;40782;47.264;11.330;2023-02-28T14:06:33;16.40;94.20
29547;DHT22;40782;47.264;11.330;2023-02-28T14:09:06;16.80;95.10
29547;DHT22;40782;47.264;11.330;2023-02-28T14:11:42;16.70;93.20
29547;DHT22;40782;47.264;11.330;2023-02-28T14:14:52;16.40;94.30
29547;DHT22;40782;47.264;11.330;2023-02-28T14:16:57;16.40;94.30
29547;DHT22;40782;47.264;11.330;2023-02-28T14:19:25;16.70;94.00
29547;DHT22;40782;47.264;11.330;2023-02-28T14:21:58;16.60;93.40
29547;DHT22;40782;47.264;11.330;2023-02-28T14:24:38;16.60;93.90
29547;DHT22;40782;47.264;11.330;2023-02-28T14:32:40;16.90;91.60
29547;DHT22;40782;47.264;11.330;2023-02-28T14:35:12;16.30;91.50
29547;DHT22;40782;47.264;11.330;2023-02-28T14:37:41;16.30;99.90
29547;DHT22;40782;47.264;11.330;2023-02-28T14:40:15;16.30;93.60
29547;DHT22;40782;47.264;11.330;2023-02-28T14:42:47;16.00;91.50
29547;DHT22;40782;47.264;11.330;2023-02-28T14:45:18;15.40;91.90
29547;DHT22;40782;47.264;11.330;2023-02-28T14:47:47;15.40;94.50
29547;DHT22;40782;47.264;11.330;2023-02-28T14:50:18;15.60;93.40
29547;DHT22;40782;47.264;11.330;2023-02-28T14:52:46;15.40;93.70
29547;DHT22;40782;47.264;11.330;2023-02-28T14:55:17;15.40;93.00
29547;DHT22;40782;47.264;11.330;2023-02-28T14:57:50;15.60;93.60
29547;DHT22;40782;47.264;11.330;2023-02-28T15:00:20;15.60;93.90
29547;DHT22;40782;47.264;11.330;2023-02-28T15:02:48;15.30;92.50
29547;DHT22;40782;47.264;11.330;2023-02-28T15:05:19;15.50;93.80
29547;DHT22;40782;47.264;11.330;2023-02-28T15:07:47;15.30;92.50
29547;DHT22;40782;47.264;11.330;2023-02-28T15:10:17;15.20;91.90
29547;DHT22;40782;47.264;11.330;2023-02-28T15:12:48;15.20;91.70
29547;DHT22;40782;47.264;11.330;2023-02-28T15:15:16;15.10;93.30
29547;DHT22;40782;47.264;11.330;2023-02-28T15:17:44;15.20;93.10
29547;DHT22;40782;47.264;11.330;2023-02-28T15:20:12;14.90;94.10
29547;DHT22;40782;47.264;11.330;2023-02-28T15:22:40;14.90;94.10
29547;DHT22;40782;47.264;11.330;2023-02-28T15:25:09;15.00;94.40
29547;DHT22;40782;47.264;11.330;2023-02-28T15:27:39;15.00;94.30
29547;DHT22;40782;47.264;11.330;2023-02-28T15:30:13;15.20;94.50
29547;DHT22;40782;47.264;11.330;2023-02-28T15:32:42;15.20;94.40
29547;DHT22;40782;47.264;11.330;2023-02-28T15:35:19;14.90;92.90
29547;DHT22;40782;47.264;11.330;2023-02-28T15:37:47;14.60;92.90
29547;DHT22;40782;47.264;11.330;2023-02-28T15:40:17;14.60;92.80
29547;DHT22;40782;47.264;11.330;2023-02-28T15:42:58;14.10;93.10
29547;DHT22;40782;47.264;11.330;2023-02-28T15:45:26;13.90;93.70
29547;DHT22;40782;47.264;11.330;2023-02-28T15:47:54;13.60;99.90
29547;DHT22;40782;47.264;11.330;2023-02-28T15:50:21;13.30;95.30
29547;DHT22;40782;47.264;11.330;2023-02-28T15:52:48;13.10;95.70